sensor_id;sensor_type;location;lat;lon;timestamp;P1;durP1;ratioP1;P2;durP2;ratioP2
37945;SDS011;23769;52.478;13.448;2022-08-21T00:00:17;9.98;;;5.85;;
37945;SDS011;23769;52.478;13.448;2022-08-21T00:02:45;8.30;;;6.25;;
37945;SDS011;23769;52.478;13.448;2022-08-21T00:05:16;8.70;;;6.07;;
37945;SDS011;23769;52.478;13.448;2022-08-21T00:07:45;6.40;;;5.30;;
37945;SDS011;23769;52.478;13.448;2022-08-21T00:10:12;7.22;;;5.30;;
37945;SDS011;23769;52.478;13.448;2022-08-21T00:12:40;8.85;;;5.65;;
37945;SDS011;23769;52.478;13.448;2022-08-21T00:15:08;10.32;;;6.18;;
37945;SDS011;23769;52.478;13.448;2022-08-21T00:17:35;8.30;;;5.78;;
37945;SDS011;23769;52.478;13.448;2022-08-21T00:20:03;9.02;;;5.63;;
37945;SDS011;23769;52.478;13.448;2022-08-21T00:22:31;8.38;;;5.68;;
37945;SDS011;23769;52.478;13.448;2022-08-21T00:24:59;8.15;;;5.10;;
37945;SDS011;23769;52.478;13.448;2022-08-21T00:27:27;6.40;;;5.15;;
37945;SDS011;23769;52.478;13.448;2022-08-21T00:29:54;8.95;;;4.85;;
37945;SDS011;23769;52.478;13.448;2022-08-21T00:32:22;7.40;;;5.07;;
37945;SDS011;23769;52.478;13.448;2022-08-21T00:34:49;6.50;;;5.05;;
37945;SDS011;23769;52.478;13.448;2022-08-21T00:37:16;9.43;;;5.55;;
37945;SDS011;23769;52.478;13.448;2022-08-21T00:39:44;9.15;;;5.68;;
37945;SDS011;23769;52.478;13.448;2022-08-21T00:42:13;9.65;;;5.18;;
37945;SDS011;23769;52.478;13.448;2022-08-21T00:44:41;6.78;;;5.10;;
37945;SDS011;23769;52.478;13.448;2022-08-21T00:47:08;8.07;;;5.20;;
37945;SDS011;23769;52.478;13.448;2022-08-21T00:49:35;8.68;;;5.57;;
37945;SDS011;23769;52.478;13.448;2022-08-21T00:52:03;7.07;;;4.93;;
37945;SDS011;23769;52.478;13.448;2022-08-21T00:54:33;7.63;;;5.53;;
37945;SDS011;23769;52.478;13.448;2022-08-21T00:57:03;8.95;;;4.82;;
37945;SDS011;23769;52.478;13.448;2022-08-21T00:59:34;7.45;;;6.28;;
37945;SDS011;23769;52.478;13.448;2022-08-21T01:02:02;7.25;;;5.78;;
37945;SDS011;23769;52.478;13.448;2022-08-21T01:04:29;8.18;;;5.90;;
37945;SDS011;23769;52.478;13.448;2022-08-21T01:06:56;8.50;;;5.57;;
37945;SDS011;23769;52.478;13.448;2022-08-21T01:09:23;8.02;;;5.10;;
37945;SDS011;23769;52.478;13.448;2022-08-21T01:11:51;6.88;;;5.53;;
37945;SDS011;23769;52.478;13.448;2022-08-21T01:14:18;7.32;;;5.53;;
37945;SDS011;23769;52.478;13.448;2022-08-21T01:16:48;6.35;;;5.20;;
37945;SDS011;23769;52.478;13.448;2022-08-21T01:19:16;7.80;;;5.80;;
37945;SDS011;23769;52.478;13.448;2022-08-21T01:21:45;6.82;;;5.80;;
37945;SDS011;23769;52.478;13.448;2022-08-21T01:24:12;8.48;;;5.53;;
37945;SDS011;23769;52.478;13.448;2022-08-21T01:26:40;7.72;;;5.22;;
37945;SDS011;23769;52.478;13.448;2022-08-21T01:29:09;10.40;;;5.60;;
37945;SDS011;23769;52.478;13.448;2022-08-21T01:31:38;7.32;;;5.90;;
37945;SDS011;23769;52.478;13.448;2022-08-21T01:34:05;8.73;;;5.32;;
37945;SDS011;23769;52.478;13.448;2022-08-21T01:36:33;7.25;;;5.50;;
37945;SDS011;23769;52.478;13.448;2022-08-21T01:39:02;6.38;;;5.00;;
37945;SDS011;23769;52.478;13.448;2022-08-21T01:41:29;7.53;;;5.15;;
37945;SDS011;23769;52.478;13.448;2022-08-21T01:43:56;7.35;;;5.40;;
37945;SDS011;23769;52.478;13.448;2022-08-21T01:46:23;8.52;;;4.93;;
37945;SDS011;23769;52.478;13.448;2022-08-21T01:48:50;6.75;;;4.32;;
37945;SDS011;23769;52.478;13.448;2022-08-21T01:51:17;5.97;;;4.28;;
37945;SDS011;23769;52.478;13.448;2022-08-21T01:53:45;10.77;;;5.22;;
37945;SDS011;23769;52.478;13.448;2022-08-21T01:56:16;7.55;;;4.82;;
37945;SDS011;23769;52.478;13.448;2022-08-21T01:58:44;8.32;;;4.63;;
37945;SDS011;23769;52.478;13.448;2022-08-21T02:01:12;5.22;;;4.47;;
37945;SDS011;23769;52.478;13.448;2022-08-21T02:03:39;6.72;;;4.88;;
37945;SDS011;23769;52.478;13.448;2022-08-21T02:06:11;8.20;;;6.03;;
37945;SDS011;23769;52.478;13.448;2022-08-21T02:08:38;6.68;;;4.80;;
37945;SDS011;23769;52.478;13.448;2022-08-21T02:11:05;7.50;;;4.45;;
37945;SDS011;23769;52.478;13.448;2022-08-21T02:13:34;8.43;;;4.68;;
37945;SDS011;23769;52.478;13.448;2022-08-21T02:16:01;5.88;;;3.80;;
37945;SDS011;23769;52.478;13.448;2022-08-21T02:18:28;6.40;;;4.20;;
37945;SDS011;23769;52.478;13.448;2022-08-21T02:20:56;5.85;;;3.97;;
37945;SDS011;23769;52.478;13.448;2022-08-21T02:23:23;7.45;;;3.95;;
37945;SDS011;23769;52.478;13.448;2022-08-21T02:25:50;8.55;;;4.40;;
37945;SDS011;23769;52.478;13.448;2022-08-21T02:28:17;6.43;;;3.80;;
37945;SDS011;23769;52.478;13.448;2022-08-21T02:30:47;6.53;;;3.60;;
37945;SDS011;23769;52.478;13.448;2022-08-21T02:33:14;6.65;;;3.97;;
37945;SDS011;23769;52.478;13.448;2022-08-21T02:35:42;7.30;;;3.50;;
37945;SDS011;23769;52.478;13.448;2022-08-21T02:38:11;5.32;;;3.58;;
37945;SDS011;23769;52.478;13.448;2022-08-21T02:40:39;8.48;;;3.67;;
37945;SDS011;23769;52.478;13.448;2022-08-21T02:43:07;6.18;;;3.42;;
37945;SDS011;23769;52.478;13.448;2022-08-21T02:45:34;6.82;;;3.63;;
37945;SDS011;23769;52.478;13.448;2022-08-21T02:48:04;6.68;;;3.47;;
37945;SDS011;23769;52.478;13.448;2022-08-21T02:50:32;6.15;;;3.03;;
37945;SDS011;23769;52.478;13.448;2022-08-21T02:53:00;7.95;;;3.70;;
37945;SDS011;23769;52.478;13.448;2022-08-21T02:55:28;12.00;;;3.53;;
37945;SDS011;23769;52.478;13.448;2022-08-21T02:57:56;5.40;;;2.90;;
37945;SDS011;23769;52.478;13.448;2022-08-21T03:00:24;5.50;;;3.00;;
37945;SDS011;23769;52.478;13.448;2022-08-21T03:02:51;8.48;;;3.10;;
37945;SDS011;23769;52.478;13.448;2022-08-21T03:05:22;5.43;;;3.00;;
37945;SDS011;23769;52.478;13.448;2022-08-21T03:07:50;6.10;;;3.20;;
37945;SDS011;23769;52.478;13.448;2022-08-21T03:10:18;8.95;;;3.50;;
37945;SDS011;23769;52.478;13.448;2022-08-21T03:12:45;6.57;;;3.38;;
37945;SDS011;23769;52.478;13.448;2022-08-21T03:15:14;5.65;;;2.55;;
37945;SDS011;23769;52.478;13.448;2022-08-21T03:17:42;6.25;;;3.10;;
37945;SDS011;23769;52.478;13.448;2022-08-21T03:20:09;6.55;;;3.17;;
37945;SDS011;23769;52.478;13.448;2022-08-21T03:22:38;6.78;;;3.22;;
37945;SDS011;23769;52.478;13.448;2022-08-21T03:25:06;5.70;;;3.08;;
37945;SDS011;23769;52.478;13.448;2022-08-21T03:27:34;8.50;;;3.10;;
37945;SDS011;23769;52.478;13.448;2022-08-21T03:30:02;6.63;;;3.22;;
37945;SDS011;23769;52.478;13.448;2022-08-21T03:32:29;6.32;;;3.08;;
37945;SDS011;23769;52.478;13.448;2022-08-21T03:34:56;5.72;;;3.15;;
37945;SDS011;23769;52.478;13.448;2022-08-21T03:37:25;6.63;;;3.35;;
37945;SDS011;23769;52.478;13.448;2022-08-21T03:39:54;6.97;;;3.17;;
37945;SDS011;23769;52.478;13.448;2022-08-21T03:42:21;6.68;;;4.20;;
37945;SDS011;23769;52.478;13.448;2022-08-21T03:44:48;11.88;;;3.28;;
37945;SDS011;23769;52.478;13.448;2022-08-21T03:47:15;6.25;;;3.15;;
37945;SDS011;23769;52.478;13.448;2022-08-21T03:49:42;4.05;;;3.00;;
37945;SDS011;23769;52.478;13.448;2022-08-21T03:52:10;7.40;;;3.33;;
37945;SDS011;23769;52.478;13.448;2022-08-21T03:54:37;7.43;;;3.30;;
37945;SDS011;23769;52.478;13.448;2022-08-21T03:57:07;4.72;;;2.67;;
37945;SDS011;23769;52.478;13.448;2022-08-21T03:59:34;6.47;;;3.13;;
37945;SDS011;23769;52.478;13.448;2022-08-21T04:02:03;6.85;;;3.55;;
37945;SDS011;23769;52.478;13.448;2022-08-21T04:04:31;9.85;;;3.38;;
37945;SDS011;23769;52.478;13.448;2022-08-21T04:06:58;8.75;;;2.92;;
37945;SDS011;23769;52.478;13.448;2022-08-21T04:09:25;4.78;;;2.83;;
37945;SDS011;23769;52.478;13.448;2022-08-21T04:11:53;8.40;;;3.13;;
37945;SDS011;23769;52.478;13.448;2022-08-21T04:14:21;6.15;;;3.00;;
37945;SDS011;23769;52.478;13.448;2022-08-21T04:16:48;7.25;;;2.67;;
37945;SDS011;23769;52.478;13.448;2022-08-21T04:19:16;8.35;;;3.13;;
37945;SDS011;23769;52.478;13.448;2022-08-21T04:21:43;6.70;;;2.83;;
37945;SDS011;23769;52.478;13.448;2022-08-21T04:24:10;9.00;;;2.95;;
37945;SDS011;23769;52.478;13.448;2022-08-21T04:26:37;6.28;;;2.42;;
37945;SDS011;23769;52.478;13.448;2022-08-21T04:29:05;9.50;;;3.53;;
37945;SDS011;23769;52.478;13.448;2022-08-21T04:31:34;7.68;;;2.95;;
37945;SDS011;23769;52.478;13.448;2022-08-21T04:34:02;7.18;;;2.97;;
37945;SDS011;23769;52.478;13.448;2022-08-21T04:36:29;6.50;;;2.92;;
37945;SDS011;23769;52.478;13.448;2022-08-21T04:38:56;10.60;;;3.13;;
37945;SDS011;23769;52.478;13.448;2022-08-21T04:41:23;6.80;;;2.42;;
37945;SDS011;23769;52.478;13.448;2022-08-21T04:43:51;5.05;;;2.92;;
37945;SDS011;23769;52.478;13.448;2022-08-21T04:46:20;12.02;;;3.00;;
37945;SDS011;23769;52.478;13.448;2022-08-21T04:48:48;7.57;;;3.00;;
37945;SDS011;23769;52.478;13.448;2022-08-21T04:51:17;4.78;;;2.78;;
37945;SDS011;23769;52.478;13.448;2022-08-21T04:53:45;8.43;;;2.85;;
37945;SDS011;23769;52.478;13.448;2022-08-21T04:56:14;6.00;;;2.58;;
37945;SDS011;23769;52.478;13.448;2022-08-21T04:58:42;7.78;;;3.35;;
37945;SDS011;23769;52.478;13.448;2022-08-21T05:01:11;6.57;;;3.25;;
37945;SDS011;23769;52.478;13.448;2022-08-21T05:03:39;9.43;;;4.13;;
37945;SDS011;23769;52.478;13.448;2022-08-21T05:06:09;7.85;;;4.00;;
37945;SDS011;23769;52.478;13.448;2022-08-21T05:08:37;8.38;;;3.00;;
37945;SDS011;23769;52.478;13.448;2022-08-21T05:11:05;7.38;;;3.00;;
37945;SDS011;23769;52.478;13.448;2022-08-21T05:13:32;6.78;;;2.80;;
37945;SDS011;23769;52.478;13.448;2022-08-21T05:16:00;10.27;;;4.63;;
37945;SDS011;23769;52.478;13.448;2022-08-21T05:18:27;7.47;;;2.40;;
37945;SDS011;23769;52.478;13.448;2022-08-21T05:20:55;5.72;;;2.55;;
37945;SDS011;23769;52.478;13.448;2022-08-21T05:23:23;9.23;;;3.42;;
37945;SDS011;23769;52.478;13.448;2022-08-21T05:25:51;8.65;;;2.50;;
37945;SDS011;23769;52.478;13.448;2022-08-21T05:28:18;5.32;;;2.53;;
37945;SDS011;23769;52.478;13.448;2022-08-21T05:30:45;5.03;;;2.28;;
37945;SDS011;23769;52.478;13.448;2022-08-21T05:33:12;7.65;;;2.50;;
37945;SDS011;23769;52.478;13.448;2022-08-21T05:35:39;6.38;;;1.98;;
37945;SDS011;23769;52.478;13.448;2022-08-21T05:38:07;11.10;;;2.95;;
37945;SDS011;23769;52.478;13.448;2022-08-21T05:40:35;5.85;;;2.13;;
37945;SDS011;23769;52.478;13.448;2022-08-21T05:43:02;8.77;;;2.80;;
37945;SDS011;23769;52.478;13.448;2022-08-21T05:45:31;7.35;;;3.13;;
37945;SDS011;23769;52.478;13.448;2022-08-21T05:48:05;7.72;;;3.00;;
37945;SDS011;23769;52.478;13.448;2022-08-21T05:50:32;11.65;;;3.00;;
37945;SDS011;23769;52.478;13.448;2022-08-21T05:53:00;6.38;;;2.28;;
37945;SDS011;23769;52.478;13.448;2022-08-21T05:55:27;5.82;;;2.95;;
37945;SDS011;23769;52.478;13.448;2022-08-21T05:57:56;7.53;;;2.42;;
37945;SDS011;23769;52.478;13.448;2022-08-21T06:00:23;7.30;;;2.70;;
37945;SDS011;23769;52.478;13.448;2022-08-21T06:02:51;6.57;;;2.47;;
37945;SDS011;23769;52.478;13.448;2022-08-21T06:05:18;6.40;;;2.30;;
37945;SDS011;23769;52.478;13.448;2022-08-21T06:07:45;5.68;;;2.30;;
37945;SDS011;23769;52.478;13.448;2022-08-21T06:10:12;5.60;;;1.90;;
37945;SDS011;23769;52.478;13.448;2022-08-21T06:12:39;5.32;;;1.92;;
37945;SDS011;23769;52.478;13.448;2022-08-21T06:15:08;10.45;;;2.65;;
37945;SDS011;23769;52.478;13.448;2022-08-21T06:17:35;4.65;;;2.03;;
37945;SDS011;23769;52.478;13.448;2022-08-21T06:20:02;8.48;;;2.28;;
37945;SDS011;23769;52.478;13.448;2022-08-21T06:22:30;6.18;;;2.60;;
37945;SDS011;23769;52.478;13.448;2022-08-21T06:24:57;5.40;;;2.53;;
37945;SDS011;23769;52.478;13.448;2022-08-21T06:27:24;5.28;;;2.03;;
37945;SDS011;23769;52.478;13.448;2022-08-21T06:29:51;7.18;;;2.40;;
37945;SDS011;23769;52.478;13.448;2022-08-21T06:32:19;8.70;;;2.92;;
37945;SDS011;23769;52.478;13.448;2022-08-21T06:34:47;8.35;;;2.50;;
37945;SDS011;23769;52.478;13.448;2022-08-21T06:37:14;7.55;;;2.40;;
37945;SDS011;23769;52.478;13.448;2022-08-21T06:39:41;6.70;;;2.75;;
37945;SDS011;23769;52.478;13.448;2022-08-21T06:42:12;7.72;;;2.60;;
37945;SDS011;23769;52.478;13.448;2022-08-21T06:44:39;7.18;;;2.05;;
37945;SDS011;23769;52.478;13.448;2022-08-21T06:47:07;9.68;;;2.40;;
37945;SDS011;23769;52.478;13.448;2022-08-21T06:49:35;11.00;;;2.40;;
37945;SDS011;23769;52.478;13.448;2022-08-21T06:52:03;7.82;;;3.20;;
37945;SDS011;23769;52.478;13.448;2022-08-21T06:54:30;7.05;;;3.25;;
37945;SDS011;23769;52.478;13.448;2022-08-21T06:56:59;9.68;;;2.92;;
37945;SDS011;23769;52.478;13.448;2022-08-21T06:59:26;8.02;;;2.25;;
37945;SDS011;23769;52.478;13.448;2022-08-21T07:01:53;6.28;;;2.13;;
37945;SDS011;23769;52.478;13.448;2022-08-21T07:04:20;6.32;;;2.63;;
37945;SDS011;23769;52.478;13.448;2022-08-21T07:06:49;5.43;;;2.47;;
37945;SDS011;23769;52.478;13.448;2022-08-21T07:09:16;8.13;;;3.55;;
37945;SDS011;23769;52.478;13.448;2022-08-21T07:11:43;7.20;;;3.40;;
37945;SDS011;23769;52.478;13.448;2022-08-21T07:14:11;7.00;;;2.90;;
37945;SDS011;23769;52.478;13.448;2022-08-21T07:16:38;5.95;;;2.85;;
37945;SDS011;23769;52.478;13.448;2022-08-21T07:19:06;6.68;;;2.28;;
37945;SDS011;23769;52.478;13.448;2022-08-21T07:21:33;7.93;;;2.33;;
37945;SDS011;23769;52.478;13.448;2022-08-21T07:24:01;6.05;;;2.45;;
37945;SDS011;23769;52.478;13.448;2022-08-21T07:26:29;7.72;;;2.38;;
37945;SDS011;23769;52.478;13.448;2022-08-21T07:28:56;5.72;;;2.40;;
37945;SDS011;23769;52.478;13.448;2022-08-21T07:31:23;9.15;;;4.38;;
37945;SDS011;23769;52.478;13.448;2022-08-21T07:33:51;6.80;;;2.13;;
37945;SDS011;23769;52.478;13.448;2022-08-21T07:36:18;7.00;;;2.50;;
37945;SDS011;23769;52.478;13.448;2022-08-21T07:38:45;4.97;;;2.22;;
37945;SDS011;23769;52.478;13.448;2022-08-21T07:41:15;5.80;;;2.20;;
37945;SDS011;23769;52.478;13.448;2022-08-21T07:43:42;3.75;;;1.55;;
37945;SDS011;23769;52.478;13.448;2022-08-21T07:46:09;5.38;;;2.13;;
37945;SDS011;23769;52.478;13.448;2022-08-21T07:48:37;8.57;;;4.78;;
37945;SDS011;23769;52.478;13.448;2022-08-21T07:51:06;8.38;;;4.05;;
37945;SDS011;23769;52.478;13.448;2022-08-21T07:53:34;9.00;;;2.85;;
37945;SDS011;23769;52.478;13.448;2022-08-21T07:56:01;11.40;;;3.83;;
37945;SDS011;23769;52.478;13.448;2022-08-21T07:58:31;4.50;;;1.90;;
37945;SDS011;23769;52.478;13.448;2022-08-21T08:00:58;5.50;;;1.85;;
37945;SDS011;23769;52.478;13.448;2022-08-21T08:03:25;5.25;;;1.75;;
37945;SDS011;23769;52.478;13.448;2022-08-21T08:05:52;3.70;;;1.70;;
37945;SDS011;23769;52.478;13.448;2022-08-21T08:08:19;6.07;;;1.50;;
37945;SDS011;23769;52.478;13.448;2022-08-21T08:10:46;4.25;;;1.90;;
37945;SDS011;23769;52.478;13.448;2022-08-21T08:13:14;4.38;;;1.85;;
37945;SDS011;23769;52.478;13.448;2022-08-21T08:15:42;4.30;;;1.45;;
37945;SDS011;23769;52.478;13.448;2022-08-21T08:18:10;6.22;;;1.63;;
37945;SDS011;23769;52.478;13.448;2022-08-21T08:20:37;4.07;;;1.45;;
37945;SDS011;23769;52.478;13.448;2022-08-21T08:23:06;3.40;;;1.63;;
37945;SDS011;23769;52.478;13.448;2022-08-21T08:25:33;4.57;;;1.63;;
37945;SDS011;23769;52.478;13.448;2022-08-21T08:28:00;5.47;;;1.63;;
37945;SDS011;23769;52.478;13.448;2022-08-21T08:30:27;2.17;;;1.27;;
37945;SDS011;23769;52.478;13.448;2022-08-21T08:32:56;5.05;;;1.52;;
37945;SDS011;23769;52.478;13.448;2022-08-21T08:35:24;5.30;;;1.60;;
37945;SDS011;23769;52.478;13.448;2022-08-21T08:37:53;5.10;;;1.75;;
37945;SDS011;23769;52.478;13.448;2022-08-21T08:40:22;5.00;;;1.50;;
37945;SDS011;23769;52.478;13.448;2022-08-21T08:42:54;5.70;;;1.35;;
37945;SDS011;23769;52.478;13.448;2022-08-21T08:45:21;3.55;;;1.50;;
37945;SDS011;23769;52.478;13.448;2022-08-21T08:47:52;4.25;;;1.80;;
37945;SDS011;23769;52.478;13.448;2022-08-21T08:50:25;5.07;;;1.70;;
37945;SDS011;23769;52.478;13.448;2022-08-21T08:52:57;7.00;;;1.70;;
37945;SDS011;23769;52.478;13.448;2022-08-21T08:55:26;3.35;;;1.45;;
37945;SDS011;23769;52.478;13.448;2022-08-21T08:57:55;5.25;;;1.38;;
37945;SDS011;23769;52.478;13.448;2022-08-21T09:00:22;4.45;;;1.70;;
37945;SDS011;23769;52.478;13.448;2022-08-21T09:02:50;4.47;;;1.55;;
37945;SDS011;23769;52.478;13.448;2022-08-21T09:05:20;4.15;;;1.80;;
37945;SDS011;23769;52.478;13.448;2022-08-21T09:07:52;5.82;;;1.60;;
37945;SDS011;23769;52.478;13.448;2022-08-21T09:10:23;6.20;;;1.70;;
37945;SDS011;23769;52.478;13.448;2022-08-21T09:12:56;8.07;;;1.75;;
37945;SDS011;23769;52.478;13.448;2022-08-21T09:15:28;6.22;;;1.85;;
37945;SDS011;23769;52.478;13.448;2022-08-21T09:18:00;8.20;;;1.70;;
37945;SDS011;23769;52.478;13.448;2022-08-21T09:20:32;5.72;;;1.60;;
37945;SDS011;23769;52.478;13.448;2022-08-21T09:23:08;4.18;;;1.67;;
37945;SDS011;23769;52.478;13.448;2022-08-21T09:25:40;5.00;;;2.15;;
37945;SDS011;23769;52.478;13.448;2022-08-21T09:28:09;4.90;;;1.88;;
37945;SDS011;23769;52.478;13.448;2022-08-21T09:30:40;6.28;;;1.80;;
37945;SDS011;23769;52.478;13.448;2022-08-21T09:33:09;8.30;;;1.70;;
37945;SDS011;23769;52.478;13.448;2022-08-21T09:35:36;7.60;;;1.80;;
37945;SDS011;23769;52.478;13.448;2022-08-21T09:38:04;5.28;;;1.67;;
37945;SDS011;23769;52.478;13.448;2022-08-21T09:40:36;6.05;;;1.70;;
37945;SDS011;23769;52.478;13.448;2022-08-21T09:43:05;4.43;;;1.67;;
37945;SDS011;23769;52.478;13.448;2022-08-21T09:45:33;3.60;;;1.60;;
37945;SDS011;23769;52.478;13.448;2022-08-21T09:48:10;4.57;;;1.55;;
37945;SDS011;23769;52.478;13.448;2022-08-21T09:50:38;5.05;;;1.42;;
37945;SDS011;23769;52.478;13.448;2022-08-21T09:53:13;3.35;;;1.55;;
37945;SDS011;23769;52.478;13.448;2022-08-21T09:55:48;8.25;;;2.22;;
37945;SDS011;23769;52.478;13.448;2022-08-21T09:58:34;3.20;;;1.85;;
37945;SDS011;23769;52.478;13.448;2022-08-21T10:01:04;3.97;;;1.90;;
37945;SDS011;23769;52.478;13.448;2022-08-21T10:03:32;6.72;;;1.90;;
37945;SDS011;23769;52.478;13.448;2022-08-21T10:06:00;4.80;;;1.88;;
37945;SDS011;23769;52.478;13.448;2022-08-21T10:08:30;3.60;;;1.50;;
37945;SDS011;23769;52.478;13.448;2022-08-21T10:11:03;5.00;;;1.58;;
37945;SDS011;23769;52.478;13.448;2022-08-21T10:13:36;3.55;;;1.50;;
37945;SDS011;23769;52.478;13.448;2022-08-21T10:16:09;4.43;;;1.90;;
37945;SDS011;23769;52.478;13.448;2022-08-21T10:18:40;7.43;;;3.58;;
37945;SDS011;23769;52.478;13.448;2022-08-21T10:21:10;7.90;;;4.00;;
37945;SDS011;23769;52.478;13.448;2022-08-21T10:26:11;4.38;;;1.60;;
37945;SDS011;23769;52.478;13.448;2022-08-21T10:28:43;5.90;;;2.40;;
37945;SDS011;23769;52.478;13.448;2022-08-21T10:31:14;5.68;;;2.33;;
37945;SDS011;23769;52.478;13.448;2022-08-21T10:33:44;5.72;;;2.22;;
37945;SDS011;23769;52.478;13.448;2022-08-21T10:36:14;6.45;;;1.95;;
37945;SDS011;23769;52.478;13.448;2022-08-21T10:38:52;11.23;;;5.75;;
37945;SDS011;23769;52.478;13.448;2022-08-21T10:41:24;5.88;;;3.30;;
37945;SDS011;23769;52.478;13.448;2022-08-21T10:43:57;4.57;;;2.50;;
37945;SDS011;23769;52.478;13.448;2022-08-21T10:46:28;4.38;;;1.67;;
37945;SDS011;23769;52.478;13.448;2022-08-21T10:49:04;5.78;;;2.80;;
37945;SDS011;23769;52.478;13.448;2022-08-21T10:51:35;6.65;;;2.88;;
37945;SDS011;23769;52.478;13.448;2022-08-21T10:54:05;6.15;;;3.78;;
37945;SDS011;23769;52.478;13.448;2022-08-21T10:56:38;10.68;;;4.47;;
37945;SDS011;23769;52.478;13.448;2022-08-21T10:59:16;4.10;;;1.80;;
37945;SDS011;23769;52.478;13.448;2022-08-21T11:01:46;6.38;;;2.75;;
37945;SDS011;23769;52.478;13.448;2022-08-21T11:04:16;6.50;;;2.75;;
37945;SDS011;23769;52.478;13.448;2022-08-21T11:06:46;5.65;;;2.03;;
37945;SDS011;23769;52.478;13.448;2022-08-21T11:09:15;7.45;;;2.15;;
37945;SDS011;23769;52.478;13.448;2022-08-21T11:11:46;6.00;;;2.00;;
37945;SDS011;23769;52.478;13.448;2022-08-21T11:14:17;5.70;;;1.80;;
37945;SDS011;23769;52.478;13.448;2022-08-21T11:16:48;3.58;;;1.30;;
37945;SDS011;23769;52.478;13.448;2022-08-21T11:19:20;4.65;;;2.35;;
37945;SDS011;23769;52.478;13.448;2022-08-21T11:21:50;5.93;;;1.70;;
37945;SDS011;23769;52.478;13.448;2022-08-21T11:24:24;2.15;;;1.15;;
37945;SDS011;23769;52.478;13.448;2022-08-21T11:26:59;3.85;;;2.00;;
37945;SDS011;23769;52.478;13.448;2022-08-21T11:29:29;4.63;;;1.85;;
37945;SDS011;23769;52.478;13.448;2022-08-21T11:32:00;3.28;;;1.80;;
37945;SDS011;23769;52.478;13.448;2022-08-21T11:34:34;3.08;;;1.40;;
37945;SDS011;23769;52.478;13.448;2022-08-21T11:37:06;3.92;;;1.48;;
37945;SDS011;23769;52.478;13.448;2022-08-21T11:39:38;5.97;;;1.80;;
37945;SDS011;23769;52.478;13.448;2022-08-21T11:42:12;6.75;;;1.50;;
37945;SDS011;23769;52.478;13.448;2022-08-21T11:44:46;3.55;;;1.60;;
37945;SDS011;23769;52.478;13.448;2022-08-21T11:47:19;5.07;;;1.50;;
37945;SDS011;23769;52.478;13.448;2022-08-21T11:49:49;2.72;;;1.35;;
37945;SDS011;23769;52.478;13.448;2022-08-21T11:52:20;2.97;;;1.17;;
37945;SDS011;23769;52.478;13.448;2022-08-21T11:54:52;4.45;;;1.33;;
37945;SDS011;23769;52.478;13.448;2022-08-21T11:57:24;3.83;;;1.77;;
37945;SDS011;23769;52.478;13.448;2022-08-21T11:59:55;5.80;;;1.83;;
37945;SDS011;23769;52.478;13.448;2022-08-21T12:02:31;3.03;;;0.90;;
37945;SDS011;23769;52.478;13.448;2022-08-21T12:05:01;1.48;;;1.00;;
37945;SDS011;23769;52.478;13.448;2022-08-21T12:07:30;3.83;;;1.40;;
37945;SDS011;23769;52.478;13.448;2022-08-21T12:09:58;2.53;;;1.20;;
37945;SDS011;23769;52.478;13.448;2022-08-21T12:12:28;1.65;;;1.05;;
37945;SDS011;23769;52.478;13.448;2022-08-21T12:15:14;2.08;;;0.95;;
37945;SDS011;23769;52.478;13.448;2022-08-21T12:17:50;3.10;;;1.48;;
37945;SDS011;23769;52.478;13.448;2022-08-21T12:20:22;6.03;;;2.45;;
37945;SDS011;23769;52.478;13.448;2022-08-21T12:22:51;3.13;;;1.40;;
37945;SDS011;23769;52.478;13.448;2022-08-21T12:25:19;2.65;;;1.33;;
37945;SDS011;23769;52.478;13.448;2022-08-21T12:27:49;3.03;;;2.22;;
37945;SDS011;23769;52.478;13.448;2022-08-21T12:30:22;4.78;;;2.83;;
37945;SDS011;23769;52.478;13.448;2022-08-21T12:32:54;4.22;;;1.65;;
37945;SDS011;23769;52.478;13.448;2022-08-21T12:35:23;4.47;;;2.40;;
37945;SDS011;23769;52.478;13.448;2022-08-21T12:37:52;2.17;;;1.23;;
37945;SDS011;23769;52.478;13.448;2022-08-21T12:40:23;2.15;;;1.00;;
37945;SDS011;23769;52.478;13.448;2022-08-21T12:42:54;3.22;;;1.33;;
37945;SDS011;23769;52.478;13.448;2022-08-21T12:45:26;3.58;;;1.30;;
37945;SDS011;23769;52.478;13.448;2022-08-21T12:47:55;2.05;;;1.10;;
37945;SDS011;23769;52.478;13.448;2022-08-21T12:50:24;2.63;;;1.20;;
37945;SDS011;23769;52.478;13.448;2022-08-21T12:52:54;6.78;;;4.45;;
37945;SDS011;23769;52.478;13.448;2022-08-21T12:55:27;3.17;;;1.50;;
37945;SDS011;23769;52.478;13.448;2022-08-21T12:57:56;2.60;;;1.10;;
37945;SDS011;23769;52.478;13.448;2022-08-21T13:00:24;2.28;;;1.20;;
37945;SDS011;23769;52.478;13.448;2022-08-21T13:02:52;2.88;;;1.30;;
37945;SDS011;23769;52.478;13.448;2022-08-21T13:05:22;2.85;;;1.10;;
37945;SDS011;23769;52.478;13.448;2022-08-21T13:07:52;2.88;;;1.40;;
37945;SDS011;23769;52.478;13.448;2022-08-21T13:10:21;2.42;;;1.15;;
37945;SDS011;23769;52.478;13.448;2022-08-21T13:12:49;3.63;;;1.70;;
37945;SDS011;23769;52.478;13.448;2022-08-21T13:15:23;1.85;;;1.00;;
37945;SDS011;23769;52.478;13.448;2022-08-21T13:17:51;3.40;;;1.25;;
37945;SDS011;23769;52.478;13.448;2022-08-21T13:20:21;3.97;;;1.48;;
37945;SDS011;23769;52.478;13.448;2022-08-21T13:22:49;2.05;;;1.10;;
37945;SDS011;23769;52.478;13.448;2022-08-21T13:25:21;1.52;;;0.93;;
37945;SDS011;23769;52.478;13.448;2022-08-21T13:27:58;2.35;;;0.77;;
37945;SDS011;23769;52.478;13.448;2022-08-21T13:30:27;4.38;;;1.30;;
37945;SDS011;23769;52.478;13.448;2022-08-21T13:32:56;2.22;;;1.13;;
37945;SDS011;23769;52.478;13.448;2022-08-21T13:35:26;2.78;;;1.20;;
37945;SDS011;23769;52.478;13.448;2022-08-21T13:37:54;2.30;;;1.15;;
37945;SDS011;23769;52.478;13.448;2022-08-21T13:40:23;2.05;;;1.00;;
37945;SDS011;23769;52.478;13.448;2022-08-21T13:42:51;1.92;;;1.02;;
37945;SDS011;23769;52.478;13.448;2022-08-21T13:45:22;3.03;;;1.48;;
37945;SDS011;23769;52.478;13.448;2022-08-21T13:47:51;3.83;;;1.33;;
37945;SDS011;23769;52.478;13.448;2022-08-21T13:50:19;8.68;;;1.88;;
37945;SDS011;23769;52.478;13.448;2022-08-21T13:52:49;5.00;;;2.78;;
37945;SDS011;23769;52.478;13.448;2022-08-21T13:57:47;3.08;;;1.65;;
37945;SDS011;23769;52.478;13.448;2022-08-21T14:00:15;5.35;;;1.67;;
37945;SDS011;23769;52.478;13.448;2022-08-21T14:02:44;5.05;;;2.38;;
37945;SDS011;23769;52.478;13.448;2022-08-21T14:05:16;6.13;;;1.73;;
37945;SDS011;23769;52.478;13.448;2022-08-21T14:07:43;5.00;;;2.50;;
37945;SDS011;23769;52.478;13.448;2022-08-21T14:10:12;4.68;;;1.90;;
37945;SDS011;23769;52.478;13.448;2022-08-21T14:12:40;4.22;;;1.75;;
37945;SDS011;23769;52.478;13.448;2022-08-21T14:15:09;6.30;;;2.00;;
37945;SDS011;23769;52.478;13.448;2022-08-21T14:17:38;2.83;;;1.58;;
37945;SDS011;23769;52.478;13.448;2022-08-21T14:20:08;4.68;;;1.85;;
37945;SDS011;23769;52.478;13.448;2022-08-21T14:22:38;4.78;;;1.65;;
37945;SDS011;23769;52.478;13.448;2022-08-21T14:25:07;2.80;;;1.42;;
37945;SDS011;23769;52.478;13.448;2022-08-21T14:27:35;6.20;;;2.00;;
37945;SDS011;23769;52.478;13.448;2022-08-21T14:30:04;5.03;;;1.48;;
37945;SDS011;23769;52.478;13.448;2022-08-21T14:32:36;4.20;;;1.75;;
37945;SDS011;23769;52.478;13.448;2022-08-21T14:35:04;5.38;;;1.60;;
37945;SDS011;23769;52.478;13.448;2022-08-21T14:37:31;4.57;;;1.70;;
37945;SDS011;23769;52.478;13.448;2022-08-21T14:40:00;4.25;;;2.15;;
37945;SDS011;23769;52.478;13.448;2022-08-21T14:42:27;6.35;;;2.63;;
37945;SDS011;23769;52.478;13.448;2022-08-21T14:44:56;6.50;;;3.33;;
37945;SDS011;23769;52.478;13.448;2022-08-21T14:47:24;9.38;;;5.10;;